EDT,Max TemperatureF,Mean TemperatureF,Min TemperatureF,Max Dew PointF,MeanDew PointF,Min DewpointF,Max Humidity, Mean Humidity, Min Humidity, Max Sea Level PressureIn, Mean Sea Level PressureIn, Min Sea Level PressureIn, Max VisibilityMiles, Mean VisibilityMiles, Min VisibilityMiles, Max Wind SpeedMPH, Mean Wind SpeedMPH, Max Gust SpeedMPH,PrecipitationIn, CloudCover, Events, WindDirDegrees
2014-3-1,53,40,27,28,18,11,55,43,31,30.36,30.28,30.21,10,10,10,9,3,16,0.00,5,,16
2014-3-2,70,51,32,44,36,27,85,59,33,30.23,30.06,29.86,10,9,5,23,9,29,0.00,4,,214
2014-3-3,61,41,20,45,29,13,92,74,55,30.28,30.02,29.78,10,6,0,31,14,39,0.42,7,Fog-Rain-Snow,44
2014-3-4,33,23,13,14,11,8,88,65,41,30.37,30.28,30.22,10,10,10,17,7,22,0.00,5,,44
2014-3-5,49,39,28,23,18,13,58,46,34,30.28,30.19,30.12,10,10,10,12,4,15,0.00,6,,46
2014-3-6,40,35,29,28,20,12,92,65,37,30.38,30.26,30.13,10,8,4,24,15,31,0.33,7,Rain-Thunderstorm,48
2014-3-7,39,34,29,34,29,26,92,84,76,30.10,30.01,29.93,10,6,2,23,10,31,1.79,7,Rain-Snow,18
2014-3-8,62,45,28,40,34,27,96,70,43,30.06,30.00,29.95,10,7,2,16,6,20,0.00,2,Fog,238
2014-3-9,65,52,38,38,34,29,76,54,31,30.08,30.02,29.97,10,10,10,16,5,21,0.00,2,,297
2014-3-10,71,52,32,32,29,26,70,46,22,30.01,29.89,29.79,10,10,10,23,7,28,0.00,1,,247
2014-3-11,76,58,40,39,32,28,65,42,18,29.79,29.73,29.65,10,10,10,17,7,23,0.00,2,,236
2014-3-12,67,53,38,58,48,23,93,68,43,29.65,29.44,29.21,10,8,0,41,16,61,0.30,7,Fog-Rain-Thunderstorm,235
2014-3-13,44,37,30,21,9,3,54,30,9,30.22,29.98,29.68,10,10,10,24,15,32,0.00,1,,310
2014-3-14,60,43,25,22,15,9,63,40,17,30.29,30.18,30.04,10,10,10,23,10,30,0.00,3,,213
2014-3-15,72,58,44,32,28,23,49,35,20,30.03,29.99,29.93,10,10,10,24,10,32,0.00,4,,246
2014-3-16,53,44,35,40,34,25,93,64,35,30.03,29.92,29.83,10,6,2,24,10,30,0.44,8,Rain,57
2014-3-17,35,32,28,34,27,25,92,89,85,29.98,29.89,29.83,10,6,1,23,13,29,0.36,8,Rain-Snow,42
2014-3-18,39,34,28,36,30,25,92,89,85,30.18,30.06,29.95,10,7,2,17,10,23,0.03,8,Rain,33
2014-3-19,48,41,34,43,37,32,96,88,80,30.18,30.10,29.96,10,5,0,14,6,17,0.06,7,Fog-Rain,351
2014-3-20,65,51,37,41,31,15,100,58,16,30.04,29.97,29.93,10,7,1,21,9,28,0.00,2,,269
2014-3-21,68,50,31,29,25,19,78,49,20,30.14,30.07,30.03,10,10,10,17,7,22,0.00,3,,218
2014-3-22,74,60,46,38,33,29,60,43,25,30.01,29.97,29.91,10,10,10,20,9,26,0.00,7,,226
2014-3-23,53,46,38,40,35,24,86,64,41,30.14,30.01,29.94,10,9,4,16,6,21,0.17,4,Rain,27
2014-3-24,50,40,29,23,14,8,56,38,19,30.27,30.17,30.06,10,10,10,13,6,17,0.00,2,,348
2014-3-25,40,36,31,34,30,21,89,71,52,30.05,29.90,29.77,10,8,2,22,6,29,0.21,7,Rain-Snow,350
2014-3-26,46,37,27,20,11,8,63,43,22,30.31,30.18,30.00,10,10,10,21,10,28,0.00,1,,306
2014-3-27,58,43,27,31,17,11,68,44,19,30.44,30.34,30.25,10,10,10,22,9,28,0.00,3,,179
2014-3-28,64,56,47,55,48,36,100,81,61,30.23,30.15,30.10,10,9,2,20,9,25,0.10,8,Rain,210
2014-3-29,64,56,48,61,56,45,100,94,87,30.12,29.86,29.56,10,5,0,29,8,64,0.14,8,Fog-Rain,165
2014-3-30,55,47,38,40,29,24,71,52,32,29.98,29.80,29.64,10,10,10,30,16,41,0.01,5,Rain,316
2014-3-31,74,54,33,29,20,11,64,38,11,30.11,30.05,29.98,10,10,10,12,5,17,0.00,3,,301